TFM - Tactical Decision Aid
ID: Runway Winds: CIG/VIS Threshold:

KMSP - Minneapolis-St Paul, MN, US

Updated at: 1711 UTC 22 Sep 2019
Latest TAF at: 1503 UTC 22 Sep 2019

TAF Board

Time1703Z 22/18Z 22/19Z 22/20Z 22/21Z 22/22Z 22/23Z 23/00Z 23/01Z 23/02Z 23/03Z 23/04Z 23/05Z 23/06Z>>
Type OBS PRVL PRVL PRVL PRVL PRVL PRVL PRVL PRVL PRVL PRVL PRVL PRVL PRVL
VIS 10 >6 >6 >6 >6 >6 >6 >6 >6 >6 >6 >6 >6 >6
CIG 22 80 80 80 80 80 80 80 100 100 100 100 100 100
Cover OVC OVC OVC OVC OVC OVC OVC OVC BKN BKN BKN BKN BKN BKN
FltCat MVFR VFR VFR VFR VFR VFR VFR VFR VFR VFR VFR VFR VFR VFR
WX -- -- -- -- -- -- -- -- -- -- -- -- -- --
WDir 330 300 300 300 300 300 300 300 250 250 250 250 250 250
WSpd 8 8 8 8 8 8 8 8 5 5 5 5 5 5
WGst -- -- -- -- -- -- -- -- -- -- -- -- -- --

TDA Impact Legend

  None Marginal Slight Moderate High
Visibility (sm) >5 3≤X≤5 1≤X<3 0.5≤X<1 <0.5
Ceiling (100 ft) >30 10≤X≤30 4≤X<10 2≤X<4 <2
Wind Speed (kt) <15 15≤X<25 25≤X<30 ≥30
Wind Gust (kt) <15 15≤X<25 25≤X<35 ≥35
Weather No Wx Reported VCTS -TS,-FZRA TS,FZRA +TS,+FZRA
TAF
KMSP 221503Z 2215/2318 30009KT P6SM BKN015 OVC150
  FM221700 30008KT P6SM SCT025 OVC080
  FM230100 25005KT P6SM BKN100
  FM230800 24005KT P6SM SCT250
  FM231400 26007KT P6SM SKC


METAR
KMSP 221703Z 33008KT 10SM BKN022 OVC027 18/14 A2986 RMK AO2 T01830139
KMSP 221653Z 31007KT 10SM BKN017 OVC160 18/13 A2986 RMK AO2 SLP110 T01780133
KMSP 221553Z 31008KT 10SM BKN017 OVC160 18/14 A2988 RMK AO2 SLP115 T01780139
KMSP 221453Z 30009KT 10SM BKN017 OVC160 18/14 A2987 RMK AO2 SLP111 T01830139 51010
KMSP 221445Z 31008KT 10SM BKN017 OVC160 18/14 A2987 RMK AO2 T01780139
KMSP 221353Z 30008KT 10SM SCT160 BKN200 18/14 A2986 RMK AO2 SLP106 T01830139

Radar Display
Forecast Discussion